createdAt,value
2019-05-13T00:18:30.554Z,5.95
2019-05-13T00:48:33.603Z,7.60
2019-05-13T01:18:36.253Z,9.23
2019-05-13T01:48:38.893Z,7.78
2019-05-13T02:18:41.493Z,7.42
2019-05-13T02:48:44.107Z,6.15
2019-05-13T03:18:46.727Z,4.75
2019-05-13T03:48:52.680Z,4.20
2019-05-13T04:18:54.090Z,3.95
2019-05-13T04:48:56.787Z,3.60
2019-05-13T05:19:23.758Z,2.50
2019-05-13T05:49:24.868Z,2.75
2019-05-13T06:19:27.505Z,1.77
2019-05-13T06:49:32.252Z,1.17
2019-05-13T07:19:34.353Z,1.35
2019-05-13T07:49:37.108Z,0.98
2019-05-13T08:19:41.410Z,1.00
2019-05-13T08:49:44.015Z,1.50
2019-05-13T09:19:46.630Z,1.98
2019-05-13T09:49:54.402Z,1.70
2019-05-13T10:19:56.416Z,1.35
2019-05-13T10:50:02.536Z,0.90
2019-05-13T11:20:06.713Z,0.98
2019-05-13T11:50:11.631Z,1.25
2019-05-13T12:20:13.565Z,0.95
2019-05-13T12:50:17.913Z,0.80
2019-05-13T13:20:24.361Z,0.82
2019-05-13T13:50:25.012Z,1.00
2019-05-13T14:20:27.662Z,1.10
2019-05-13T14:50:31.939Z,0.50
2019-05-13T15:20:34.682Z,0.70
2019-05-13T15:50:37.444Z,0.78
2019-05-13T16:20:42.858Z,1.27
2019-05-13T16:50:44.609Z,1.20
2019-05-13T17:20:47.252Z,1.60
2019-05-13T17:50:51.969Z,0.88
2019-05-13T18:20:54.189Z,0.80
2019-05-13T18:50:56.821Z,2.20
2019-05-13T19:21:01.714Z,2.95
2019-05-13T19:51:05.912Z,3.03
2019-05-13T20:21:10.480Z,4.75
2019-05-13T20:51:12.924Z,4.92
2019-05-13T21:21:15.534Z,7.37
2019-05-13T21:51:18.241Z,9.40
2019-05-13T22:21:20.930Z,7.72
2019-05-13T22:51:23.565Z,6.95
2019-05-13T23:21:26.183Z,6.58
2019-05-13T23:51:32.080Z,6.10
